Terminal Aerodrome Forecast
Issued by NWS

Home | Current Version | Previous Version | Text Only | Print | Product List | Glossary On
Versions: 1 2 3 4 5 6 7 8 9 10 11 12 13 14 15 16 17 18 19 20 21 22 23 24 25 26 27 28 29 30 31 32 33 34 35 36 37 38 39 40 41 42 43 44 45 46 47 48 49 50
000
FTAK31 PANC 280132 AAA
TAFAAQ
TAF AMD
PAAQ 280132Z 2802/2824 VRB04KT P6SM OVC009
     FM280400 34005KT 6SM -SHSN SCT015 OVC025
     FM280800 36006KT P6SM VCSH SCT025 BKN045
     FM281000 01010KT P6SM SCT050 BKN080
     FM282100 03015G25KT P6SM SCT080 SCT150=

USA.gov is the U.S. government's official web portal to all federal, state and local government web resources and services.